createdAt,value
2023-03-17T00:01:57.359Z,6.38
2023-03-17T00:04:27.661Z,6.36
2023-03-17T00:06:56.595Z,6.41
2023-03-17T00:09:24.104Z,6.41
2023-03-17T00:11:52.254Z,6.49
2023-03-17T00:14:20.460Z,6.43
2023-03-17T00:16:50.599Z,6.38
2023-03-17T00:19:20.631Z,6.32
2023-03-17T00:21:50.718Z,6.36
2023-03-17T00:24:18.309Z,6.44
2023-03-17T00:26:46.143Z,6.34
2023-03-17T00:29:16.100Z,6.29
2023-03-17T00:31:45.559Z,6.33
2023-03-17T00:34:18.184Z,6.33
2023-03-17T00:36:48.042Z,6.27
2023-03-17T00:39:17.722Z,6.25
2023-03-17T00:44:13.169Z,6.27
2023-03-17T00:46:41.993Z,6.28
2023-03-17T00:51:44.777Z,6.22
2023-03-17T00:54:13.604Z,6.22
2023-03-17T00:56:43.703Z,6.22
2023-03-17T00:59:19.505Z,6.24
2023-03-17T01:01:47.973Z,6.21
2023-03-17T01:04:15.878Z,6.15
2023-03-17T01:06:44.043Z,6.14
2023-03-17T01:09:14.711Z,6.12
2023-03-17T01:11:44.115Z,6.08
2023-03-17T01:14:12.199Z,6.09
2023-03-17T01:16:41.675Z,6.05
2023-03-17T01:19:10.801Z,6.11
2023-03-17T01:21:38.581Z,6.08
2023-03-17T01:24:09.576Z,6.06
2023-03-17T01:26:37.570Z,6.07
2023-03-17T01:29:07.830Z,6.04
2023-03-17T01:31:36.146Z,6.01
2023-03-17T01:34:04.329Z,6.05
2023-03-17T01:36:31.957Z,6.11
2023-03-17T01:38:59.445Z,6.14
2023-03-17T01:41:28.135Z,6.14
2023-03-17T01:43:55.633Z,6.11
2023-03-17T01:46:29.916Z,6.13
2023-03-17T01:49:13.113Z,6.18
2023-03-17T01:51:47.595Z,6.16
2023-03-17T01:54:18.198Z,6.16
2023-03-17T01:56:50.058Z,6.16
2023-03-17T01:59:24.528Z,6.29
2023-03-17T02:01:58.352Z,6.16
2023-03-17T02:04:26.739Z,6.02
2023-03-17T02:06:58.488Z,5.95
2023-03-17T02:09:28.134Z,5.90
2023-03-17T02:11:57.054Z,5.80
2023-03-17T02:14:25.448Z,5.78
2023-03-17T02:16:54.737Z,5.69
2023-03-17T02:19:22.577Z,5.61
2023-03-17T02:21:54.035Z,5.57
2023-03-17T02:24:28.616Z,5.66
2023-03-17T02:26:59.369Z,5.61
2023-03-17T02:29:27.651Z,5.58
2023-03-17T02:31:55.547Z,5.53
2023-03-17T02:34:24.169Z,5.51
2023-03-17T02:36:53.198Z,5.47
2023-03-17T02:39:21.486Z,5.45
2023-03-17T02:41:50.259Z,5.47
2023-03-17T02:44:18.812Z,5.49
2023-03-17T02:46:47.012Z,5.50
2023-03-17T02:49:16.274Z,5.48
2023-03-17T02:51:43.883Z,5.45
2023-03-17T02:54:13.210Z,5.46
2023-03-17T02:56:40.836Z,5.46
2023-03-17T02:59:09.168Z,5.44
2023-03-17T03:01:41.032Z,5.37
2023-03-17T03:04:08.788Z,5.41
2023-03-17T03:06:37.490Z,5.44
2023-03-17T03:09:05.825Z,5.43
2023-03-17T03:11:34.737Z,5.53
2023-03-17T03:14:02.322Z,5.54
2023-03-17T03:16:30.086Z,5.46
2023-03-17T03:18:57.880Z,5.42
2023-03-17T03:21:25.493Z,5.60
2023-03-17T03:23:53.471Z,5.59
2023-03-17T03:26:21.459Z,5.37
2023-03-17T03:28:51.092Z,5.29
2023-03-17T03:31:19.719Z,5.24
2023-03-17T03:33:47.736Z,5.10
2023-03-17T03:36:15.878Z,5.07
2023-03-17T03:38:43.696Z,4.99
2023-03-17T03:41:11.306Z,5.00
2023-03-17T03:43:38.850Z,4.98
2023-03-17T03:46:08.509Z,4.90
2023-03-17T03:48:36.716Z,4.95
2023-03-17T03:51:04.886Z,4.94
2023-03-17T03:53:32.592Z,4.85
2023-03-17T03:56:00.798Z,4.91
2023-03-17T03:58:28.442Z,4.97
2023-03-17T04:00:56.012Z,5.01
2023-03-17T04:03:24.983Z,5.16
2023-03-17T04:05:52.651Z,4.98
2023-03-17T04:08:20.908Z,4.98
2023-03-17T04:10:48.530Z,5.01
2023-03-17T04:13:16.190Z,5.18
2023-03-17T04:15:43.970Z,4.99
2023-03-17T04:18:11.589Z,5.11
2023-03-17T04:20:40.558Z,5.06
2023-03-17T04:23:08.080Z,4.88
2023-03-17T04:25:35.728Z,5.14
2023-03-17T04:28:03.304Z,4.92
2023-03-17T04:30:31.531Z,4.80
2023-03-17T04:32:59.374Z,4.69
2023-03-17T04:35:27.077Z,4.75
2023-03-17T04:37:56.010Z,4.68
2023-03-17T04:40:23.789Z,4.61
2023-03-17T04:42:51.655Z,4.64
2023-03-17T04:45:19.749Z,4.59
2023-03-17T04:47:47.367Z,4.61
2023-03-17T04:50:15.990Z,4.62
2023-03-17T04:52:43.599Z,4.61
2023-03-17T04:55:12.909Z,4.53
2023-03-17T04:57:40.551Z,4.62
2023-03-17T05:00:11.852Z,4.73
2023-03-17T05:02:39.936Z,4.98
2023-03-17T05:05:08.470Z,4.90
2023-03-17T05:07:36.146Z,4.68
2023-03-17T05:10:03.836Z,4.48
2023-03-17T05:12:32.832Z,4.57
2023-03-17T05:15:00.485Z,4.52
2023-03-17T05:17:28.221Z,4.40
2023-03-17T05:19:55.744Z,4.29
2023-03-17T05:22:25.405Z,4.56
2023-03-17T05:24:52.940Z,4.44
2023-03-17T05:27:21.413Z,4.36
2023-03-17T05:29:50.491Z,4.47
2023-03-17T05:32:18.277Z,4.47
2023-03-17T05:34:47.555Z,4.63
2023-03-17T05:37:15.940Z,4.63
2023-03-17T05:39:43.657Z,4.56
2023-03-17T05:42:11.497Z,4.66
2023-03-17T05:44:39.822Z,4.62
2023-03-17T05:47:10.003Z,4.46
2023-03-17T05:49:37.848Z,4.53
2023-03-17T05:52:05.596Z,4.46
2023-03-17T05:54:33.165Z,4.49
2023-03-17T05:57:01.884Z,4.40
2023-03-17T05:59:29.740Z,4.43
2023-03-17T06:01:57.609Z,4.39
2023-03-17T06:04:29.699Z,4.47
2023-03-17T06:06:59.973Z,4.53
2023-03-17T06:09:28.042Z,4.68
2023-03-17T06:11:55.539Z,4.85
2023-03-17T06:14:23.528Z,5.15
2023-03-17T06:16:51.780Z,5.47
2023-03-17T06:19:19.356Z,6.33
2023-03-17T06:21:48.370Z,7.60
2023-03-17T06:24:18.959Z,8.68
2023-03-17T06:26:47.046Z,10.15
2023-03-17T06:29:14.781Z,10.45
2023-03-17T06:31:42.369Z,10.35
2023-03-17T06:34:12.236Z,10.34
2023-03-17T06:36:41.397Z,10.67
2023-03-17T06:39:11.150Z,10.41
2023-03-17T06:41:38.923Z,9.51
2023-03-17T06:44:07.342Z,8.73
2023-03-17T06:46:35.507Z,9.88
2023-03-17T06:49:03.847Z,10.09
2023-03-17T06:51:34.336Z,10.56
2023-03-17T06:54:01.899Z,11.08
2023-03-17T06:56:32.051Z,11.42
2023-03-17T06:58:59.786Z,10.31
2023-03-17T07:01:36.484Z,10.54
2023-03-17T07:04:04.341Z,11.83
2023-03-17T07:06:33.649Z,11.25
2023-03-17T07:09:02.354Z,13.11
2023-03-17T07:11:30.681Z,13.33
2023-03-17T07:13:59.811Z,14.13
2023-03-17T07:16:27.673Z,11.99
2023-03-17T07:18:55.356Z,12.96
2023-03-17T07:21:22.949Z,12.30
2023-03-17T07:23:50.533Z,13.35
2023-03-17T07:26:18.238Z,14.14
2023-03-17T07:28:46.597Z,13.25
2023-03-17T07:31:16.098Z,10.58
2023-03-17T07:33:46.660Z,11.02
2023-03-17T07:36:15.810Z,11.50
2023-03-17T07:38:43.722Z,10.45
2023-03-17T07:41:11.624Z,10.69
2023-03-17T07:43:39.253Z,10.50
2023-03-17T07:46:07.336Z,10.06
2023-03-17T07:48:40.674Z,10.57
2023-03-17T07:51:08.629Z,10.66
2023-03-17T07:53:36.508Z,10.98
2023-03-17T07:56:04.560Z,11.01
2023-03-17T07:58:32.164Z,11.74
2023-03-17T08:00:59.744Z,10.74
2023-03-17T08:03:27.325Z,10.08
2023-03-17T08:05:57.367Z,10.07
2023-03-17T08:08:26.202Z,10.52
2023-03-17T08:10:54.345Z,10.61
2023-03-17T08:13:21.917Z,11.63
2023-03-17T08:15:49.896Z,11.40
2023-03-17T08:18:18.230Z,11.18
2023-03-17T08:20:47.834Z,11.56
2023-03-17T08:23:17.809Z,11.99
2023-03-17T08:25:45.708Z,11.55
2023-03-17T08:28:14.113Z,11.76
2023-03-17T08:30:42.459Z,11.98
2023-03-17T08:33:10.512Z,12.25
2023-03-17T08:35:41.502Z,13.29
2023-03-17T08:38:09.558Z,14.07
2023-03-17T08:40:39.887Z,14.51
2023-03-17T08:43:11.224Z,13.56
2023-03-17T08:45:40.693Z,13.40
2023-03-17T08:48:08.541Z,13.99
2023-03-17T08:50:36.376Z,12.19
2023-03-17T08:53:04.262Z,12.92
2023-03-17T08:55:31.883Z,13.72
2023-03-17T08:58:01.445Z,13.96
2023-03-17T09:00:29.452Z,13.35
2023-03-17T09:02:58.298Z,13.19
2023-03-17T09:05:26.647Z,13.15
2023-03-17T09:07:54.280Z,13.19
2023-03-17T09:10:23.488Z,13.62
2023-03-17T09:12:51.583Z,14.19
2023-03-17T09:15:21.138Z,13.44
2023-03-17T09:17:49.436Z,13.43
2023-03-17T09:20:17.629Z,13.41
2023-03-17T09:22:45.280Z,13.25
2023-03-17T09:25:12.855Z,13.65
2023-03-17T09:27:40.465Z,13.86
2023-03-17T09:30:10.395Z,13.57
2023-03-17T09:32:40.228Z,14.44
2023-03-17T09:35:08.136Z,14.15
2023-03-17T09:37:35.807Z,13.86
2023-03-17T09:40:08.363Z,13.42
2023-03-17T09:42:52.292Z,14.02
2023-03-17T09:45:31.334Z,14.46
2023-03-17T09:48:13.278Z,13.22
2023-03-17T09:50:48.135Z,14.05
2023-03-17T09:53:19.656Z,13.11
2023-03-17T09:55:50.778Z,13.68
2023-03-17T09:58:22.366Z,14.23
2023-03-17T10:00:50.233Z,13.69
2023-03-17T10:03:19.509Z,13.63
2023-03-17T10:05:47.143Z,13.50
2023-03-17T10:08:30.630Z,14.10
2023-03-17T10:11:08.749Z,13.63
2023-03-17T10:13:49.962Z,13.84
2023-03-17T10:16:20.618Z,13.96
2023-03-17T10:18:56.575Z,13.82
2023-03-17T10:21:29.581Z,13.49
2023-03-17T10:23:58.420Z,13.79
2023-03-17T10:26:32.710Z,13.74
2023-03-17T10:29:04.025Z,13.97
2023-03-17T10:31:34.638Z,14.04
2023-03-17T10:34:14.655Z,14.58
2023-03-17T10:36:47.874Z,14.35
2023-03-17T10:39:19.551Z,14.80
2023-03-17T10:41:56.896Z,15.11
2023-03-17T10:44:36.306Z,15.22
2023-03-17T10:47:04.072Z,15.34
2023-03-17T10:49:36.768Z,15.67
2023-03-17T10:52:08.566Z,16.28
2023-03-17T10:54:38.415Z,15.15
2023-03-17T10:57:10.584Z,15.37
2023-03-17T10:59:44.792Z,15.40
2023-03-17T11:02:22.255Z,15.02
2023-03-17T11:04:54.907Z,15.46
2023-03-17T11:07:29.382Z,15.73
2023-03-17T11:10:02.717Z,15.96
2023-03-17T11:12:39.285Z,15.08
2023-03-17T11:15:11.257Z,14.84
2023-03-17T11:17:49.054Z,15.34
2023-03-17T11:20:42.041Z,15.25
2023-03-17T11:23:19.300Z,14.87
2023-03-17T11:25:55.561Z,15.67
2023-03-17T11:28:26.465Z,15.02
2023-03-17T11:31:01.832Z,15.77
2023-03-17T11:33:36.577Z,16.07
2023-03-17T11:36:19.770Z,16.71
2023-03-17T11:38:58.142Z,17.05
2023-03-17T11:41:46.372Z,16.55
2023-03-17T11:44:37.108Z,16.38
2023-03-17T11:47:14.115Z,16.89
2023-03-17T11:49:43.145Z,16.95
2023-03-17T11:52:26.775Z,16.93
2023-03-17T11:55:04.300Z,17.20
2023-03-17T11:57:36.506Z,17.69
2023-03-17T12:00:07.633Z,17.52
2023-03-17T12:02:42.340Z,16.82
2023-03-17T12:05:15.319Z,17.12
2023-03-17T12:07:49.395Z,17.67
2023-03-17T12:10:23.263Z,18.18
2023-03-17T12:12:54.309Z,18.62
2023-03-17T12:15:29.499Z,18.81
2023-03-17T12:18:02.970Z,18.97
2023-03-17T12:20:34.896Z,19.17
2023-03-17T12:23:10.171Z,18.47
2023-03-17T12:25:49.678Z,17.45
2023-03-17T12:28:20.917Z,17.55
2023-03-17T12:30:52.868Z,17.38
2023-03-17T12:33:27.399Z,17.12
2023-03-17T12:35:55.595Z,17.43
2023-03-17T12:38:32.037Z,17.06
2023-03-17T12:41:15.401Z,16.78
2023-03-17T12:43:56.843Z,16.95
2023-03-17T12:46:57.408Z,17.37
2023-03-17T12:50:05.661Z,17.38
2023-03-17T12:52:43.596Z,17.05
2023-03-17T12:55:16.804Z,17.29
2023-03-17T12:57:47.853Z,16.93
2023-03-17T13:00:21.279Z,17.14
2023-03-17T13:02:52.202Z,17.35
2023-03-17T13:05:32.595Z,17.55
2023-03-17T13:08:02.820Z,17.87
2023-03-17T13:10:41.535Z,17.52
2023-03-17T13:13:35.698Z,18.02
2023-03-17T13:16:06.134Z,17.97
2023-03-17T13:18:53.027Z,18.44
2023-03-17T13:21:28.176Z,18.30
2023-03-17T13:23:59.318Z,18.33
2023-03-17T13:26:55.323Z,18.21
2023-03-17T13:29:45.490Z,18.17
2023-03-17T13:32:38.048Z,17.82
2023-03-17T13:35:20.083Z,17.91
2023-03-17T13:38:23.132Z,18.05
2023-03-17T13:41:03.780Z,18.14
2023-03-17T13:43:59.314Z,18.29
2023-03-17T13:46:33.933Z,18.16
2023-03-17T13:49:04.124Z,18.33
2023-03-17T13:51:34.349Z,18.41
2023-03-17T13:54:09.660Z,18.62
2023-03-17T13:56:49.958Z,18.62
2023-03-17T13:59:20.501Z,18.59
2023-03-17T14:01:55.501Z,18.86
2023-03-17T14:04:27.408Z,18.67
2023-03-17T14:07:00.253Z,18.34
2023-03-17T14:09:35.587Z,18.27
2023-03-17T14:12:11.992Z,18.46
2023-03-17T14:14:49.532Z,18.32
2023-03-17T14:17:23.505Z,18.53
2023-03-17T14:20:07.187Z,18.53
2023-03-17T14:22:42.543Z,18.27
2023-03-17T14:25:18.285Z,18.41
2023-03-17T14:27:47.293Z,18.50
2023-03-17T14:30:24.997Z,18.67
2023-03-17T14:32:59.334Z,18.65
2023-03-17T14:35:31.423Z,18.81
2023-03-17T14:37:59.308Z,18.62
2023-03-17T14:40:28.794Z,18.66
2023-03-17T14:42:57.341Z,18.47
2023-03-17T14:45:34.753Z,18.40
2023-03-17T14:48:02.960Z,18.44
2023-03-17T14:50:36.061Z,18.53
2023-03-17T14:53:03.915Z,18.46
2023-03-17T14:55:38.137Z,18.53
2023-03-17T14:58:11.118Z,18.49
2023-03-17T15:00:49.698Z,18.47
2023-03-17T15:03:29.231Z,18.24
2023-03-17T15:06:09.715Z,18.31
2023-03-17T15:08:46.194Z,18.30
2023-03-17T15:11:25.950Z,18.30
2023-03-17T15:14:07.232Z,17.97
2023-03-17T15:16:37.714Z,17.18
2023-03-17T15:19:08.073Z,16.77
2023-03-17T15:21:40.414Z,16.86
2023-03-17T15:24:24.042Z,16.79
2023-03-17T15:27:00.949Z,16.58
2023-03-17T15:29:29.686Z,16.63
2023-03-17T15:32:10.816Z,16.83
2023-03-17T15:34:38.386Z,16.67
2023-03-17T15:37:15.844Z,16.87
2023-03-17T15:39:43.588Z,16.61
2023-03-17T15:42:11.221Z,16.53
2023-03-17T15:44:38.870Z,16.72
2023-03-17T15:47:07.922Z,16.66
2023-03-17T15:49:35.938Z,16.62
2023-03-17T15:52:03.532Z,16.69
2023-03-17T15:54:31.176Z,16.82
2023-03-17T15:56:58.884Z,16.49
2023-03-17T15:59:26.524Z,16.47
2023-03-17T16:01:54.482Z,16.51
2023-03-17T16:04:23.640Z,16.64
2023-03-17T16:06:52.250Z,16.70
2023-03-17T16:09:19.874Z,16.67
2023-03-17T16:11:47.505Z,16.63
2023-03-17T16:14:15.284Z,16.59
2023-03-17T16:16:45.715Z,16.54
2023-03-17T16:19:20.263Z,16.49
2023-03-17T16:21:57.327Z,16.47
2023-03-17T16:24:26.986Z,16.43
2023-03-17T16:26:54.668Z,16.33
2023-03-17T16:29:22.775Z,16.33
2023-03-17T16:31:51.990Z,16.32
2023-03-17T16:34:22.198Z,16.22
2023-03-17T16:36:51.600Z,16.10
2023-03-17T16:39:21.244Z,16.08
2023-03-17T16:41:50.018Z,15.88
2023-03-17T16:44:20.309Z,15.91
2023-03-17T16:46:48.850Z,15.84
2023-03-17T16:49:18.535Z,15.69
2023-03-17T16:51:47.381Z,15.55
2023-03-17T16:54:19.195Z,15.46
2023-03-17T16:56:48.089Z,15.37
2023-03-17T16:59:19.820Z,15.27
2023-03-17T17:01:47.670Z,15.20
2023-03-17T17:04:15.332Z,15.14
2023-03-17T17:06:43.898Z,15.08
2023-03-17T17:09:11.569Z,14.99
2023-03-17T17:11:42.140Z,14.94
2023-03-17T17:14:10.998Z,14.88
2023-03-17T17:16:40.996Z,14.82
2023-03-17T17:19:15.775Z,14.76
2023-03-17T17:21:43.867Z,14.75
2023-03-17T17:24:14.900Z,14.75
2023-03-17T17:26:46.915Z,14.76
2023-03-17T17:29:14.635Z,14.72
2023-03-17T17:31:42.347Z,14.65
2023-03-17T17:34:10.006Z,14.60
2023-03-17T17:36:37.649Z,14.57
2023-03-17T17:39:06.712Z,14.46
2023-03-17T17:41:34.854Z,14.36
2023-03-17T17:44:06.630Z,14.34
2023-03-17T17:46:34.284Z,14.28
2023-03-17T17:49:03.812Z,14.23
2023-03-17T17:51:32.753Z,14.22
2023-03-17T17:54:01.893Z,14.19
2023-03-17T17:56:29.615Z,14.19
2023-03-17T17:58:58.586Z,14.14
2023-03-17T18:01:29.411Z,14.13
2023-03-17T18:03:57.114Z,14.14
2023-03-17T18:06:24.798Z,14.13
2023-03-17T18:08:52.939Z,14.18
2023-03-17T18:11:23.444Z,14.09
2023-03-17T18:13:51.305Z,14.05
2023-03-17T18:16:20.315Z,14.01
2023-03-17T18:18:51.179Z,13.93
2023-03-17T18:21:21.519Z,13.89
2023-03-17T18:23:49.926Z,13.88
2023-03-17T18:26:20.178Z,13.81
2023-03-17T18:28:48.571Z,13.81
2023-03-17T18:31:19.180Z,13.80
2023-03-17T18:33:52.835Z,13.76
2023-03-17T18:36:23.359Z,13.73
2023-03-17T18:38:51.087Z,13.72
2023-03-17T18:41:18.801Z,13.72
2023-03-17T18:43:46.531Z,13.68
2023-03-17T18:46:14.312Z,13.63
2023-03-17T18:48:42.093Z,13.64
2023-03-17T18:51:11.264Z,13.58
2023-03-17T18:53:39.183Z,13.56
2023-03-17T18:56:07.758Z,13.51
2023-03-17T18:58:36.267Z,13.49
2023-03-17T19:01:04.715Z,13.45
2023-03-17T19:03:33.175Z,13.40
2023-03-17T19:06:09.230Z,13.37
2023-03-17T19:08:38.323Z,13.27
2023-03-17T19:11:07.583Z,13.23
2023-03-17T19:13:35.762Z,13.15
2023-03-17T19:16:03.908Z,13.12
2023-03-17T19:18:31.743Z,13.08
2023-03-17T19:20:59.396Z,13.05
2023-03-17T19:23:27.563Z,13.01
2023-03-17T19:25:56.736Z,12.98
2023-03-17T19:28:24.603Z,12.96
2023-03-17T19:30:52.285Z,12.93
2023-03-17T19:33:19.909Z,12.90
2023-03-17T19:35:55.933Z,12.91
2023-03-17T19:38:23.967Z,12.91
2023-03-17T19:40:53.410Z,12.90
2023-03-17T19:43:39.011Z,12.91
2023-03-17T19:46:08.794Z,12.93
2023-03-17T19:48:37.428Z,12.92
2023-03-17T19:51:05.775Z,12.93
2023-03-17T19:53:33.544Z,12.90
2023-03-17T19:56:01.462Z,12.92
2023-03-17T19:58:30.540Z,12.90
2023-03-17T20:00:58.194Z,12.89
2023-03-17T20:03:26.432Z,12.91
2023-03-17T20:05:54.337Z,12.90
2023-03-17T20:08:22.390Z,12.89
2023-03-17T20:10:53.922Z,12.87
2023-03-17T20:13:21.819Z,12.82
2023-03-17T20:15:51.473Z,12.80
2023-03-17T20:18:19.795Z,12.77
2023-03-17T20:20:52.976Z,12.75
2023-03-17T20:23:21.469Z,12.73
2023-03-17T20:25:50.376Z,12.72
2023-03-17T20:28:18.472Z,12.69
2023-03-17T20:30:47.205Z,12.69
2023-03-17T20:33:16.732Z,12.71
2023-03-17T20:35:47.296Z,12.70
2023-03-17T20:38:15.623Z,12.70
2023-03-17T20:40:43.644Z,12.74
2023-03-17T20:43:11.437Z,12.74
2023-03-17T20:45:39.159Z,12.74
2023-03-17T20:48:10.486Z,12.76
2023-03-17T20:50:40.910Z,12.73
2023-03-17T20:53:08.608Z,12.59
2023-03-17T20:55:36.464Z,12.54
2023-03-17T20:58:04.538Z,12.45
2023-03-17T21:00:32.889Z,12.28
2023-03-17T21:03:00.744Z,12.18
2023-03-17T21:05:29.456Z,12.15
2023-03-17T21:07:58.407Z,12.12
2023-03-17T21:10:26.273Z,12.12
2023-03-17T21:12:53.868Z,12.11
2023-03-17T21:15:22.829Z,12.06
2023-03-17T21:17:50.934Z,11.93
2023-03-17T21:20:19.424Z,11.86
2023-03-17T21:22:46.935Z,11.84
2023-03-17T21:25:15.902Z,11.72
2023-03-17T21:27:44.005Z,11.66
2023-03-17T21:30:14.524Z,11.67
2023-03-17T21:32:42.675Z,11.68
2023-03-17T21:35:11.477Z,11.67
2023-03-17T21:37:39.019Z,11.75
2023-03-17T21:40:07.745Z,11.80
2023-03-17T21:42:36.663Z,11.82
2023-03-17T21:45:05.291Z,11.86
2023-03-17T21:47:32.922Z,11.83
2023-03-17T21:50:00.711Z,11.85
2023-03-17T21:52:28.220Z,11.92
2023-03-17T21:54:55.911Z,11.89
2023-03-17T21:57:23.768Z,11.81
2023-03-17T21:59:52.693Z,11.79
2023-03-17T22:02:20.898Z,11.76
2023-03-17T22:04:48.843Z,11.77
2023-03-17T22:07:21.235Z,11.83
2023-03-17T22:09:51.013Z,11.77
2023-03-17T22:12:19.201Z,11.72
2023-03-17T22:14:46.774Z,11.79
2023-03-17T22:17:15.646Z,11.85
2023-03-17T22:19:44.731Z,11.80
2023-03-17T22:22:14.966Z,11.75
2023-03-17T22:24:42.696Z,11.65
2023-03-17T22:27:10.311Z,11.53
2023-03-17T22:29:38.032Z,11.48
2023-03-17T22:32:06.302Z,11.33
2023-03-17T22:34:35.417Z,11.32
2023-03-17T22:37:02.935Z,11.51
2023-03-17T22:39:31.121Z,11.52
2023-03-17T22:41:58.787Z,11.46
2023-03-17T22:46:54.828Z,11.61
2023-03-17T22:49:22.342Z,11.59
2023-03-17T22:51:51.315Z,11.55
2023-03-17T22:54:19.272Z,11.49
2023-03-17T22:56:50.409Z,11.36
2023-03-17T22:59:22.203Z,11.38
2023-03-17T23:01:49.756Z,11.41
2023-03-17T23:04:18.507Z,11.37
2023-03-17T23:06:46.498Z,11.45
2023-03-17T23:09:15.709Z,11.44
2023-03-17T23:11:43.317Z,11.47
2023-03-17T23:14:11.452Z,11.45
2023-03-17T23:16:41.784Z,11.47
2023-03-17T23:19:10.190Z,11.48
2023-03-17T23:21:39.519Z,11.58
2023-03-17T23:24:08.634Z,11.50
2023-03-17T23:26:44.635Z,11.55
2023-03-17T23:29:12.540Z,11.62
2023-03-17T23:31:40.889Z,11.64
2023-03-17T23:34:09.662Z,11.70
2023-03-17T23:36:39.984Z,11.72
2023-03-17T23:39:08.143Z,11.79
2023-03-17T23:41:39.558Z,11.86
2023-03-17T23:44:07.540Z,11.78
2023-03-17T23:46:35.517Z,11.78
2023-03-17T23:49:04.358Z,11.70
2023-03-17T23:51:32.241Z,11.74
2023-03-17T23:53:59.865Z,11.67
2023-03-17T23:56:27.482Z,11.73
2023-03-17T23:58:56.410Z,11.77
